Time;durP1;ratioP1;P1;durP2;ratioP2;P2;SDS_P1;SDS_P2;PMS_P1;PMS_P2;Temp;Humidity;BMP_temperature;BMP_pressure;BME280_temperature;BME280_humidity;BME280_pressure;Samples;Min_cycle;Max_cycle;Signal;HPM_P1;HPM_P2
2023/07/07 04:35:38;;;;;;;;;;;;;;;24.86;65.28;100348.19;102219;1292;609006;-55
2023/07/07 04:38:05;;;;;;;10.00;8.40;;;;;;;25.20;64.57;100332.65;104522;1266;59256;-55
2023/07/07 04:40:32;;;;;;;9.60;8.20;;;;;;;25.28;64.09;100318.98;104617;1266;59389;-55
2023/07/07 04:42:59;;;;;;;11.40;8.50;;;;;;;25.30;63.68;100306.95;104644;1268;63683;-55
2023/07/07 04:45:25;;;;;;;10.20;8.50;;;;;;;25.28;63.36;100308.41;104783;1263;61673;-56
2023/07/07 04:47:52;;;;;;;11.80;8.50;;;;;;;25.22;63.31;100311.77;104655;1263;193847;-56
2023/07/07 04:50:19;;;;;;;10.70;8.10;;;;;;;25.17;63.63;100302.48;105238;1263;59349;-55
2023/07/07 04:52:46;;;;;;;10.80;8.50;;;;;;;25.11;64.07;100298.23;104836;1265;59165;-55
2023/07/07 04:55:13;;;;;;;11.30;8.40;;;;;;;25.06;64.19;100304.52;104897;1263;59256;-56
2023/07/07 04:57:39;;;;;;;9.60;7.80;;;;;;;25.07;64.48;100315.41;104867;1265;61739;-55
2023/07/07 05:00:08;;;;;;;11.60;8.40;;;;;;;25.10;64.23;100314.39;104930;1264;63861;-55
2023/07/07 05:02:36;;;;;;;10.60;8.60;;;;;;;25.15;64.06;100314.93;104878;1263;59621;-55
2023/07/07 05:05:04;;;;;;;10.90;8.10;;;;;;;25.16;63.86;100311.94;104949;1262;60302;-55
2023/07/07 05:07:31;;;;;;;12.80;7.90;;;;;;;25.15;63.97;100312.94;104943;1265;64201;-56
2023/07/07 05:09:58;;;;;;;10.40;8.30;;;;;;;25.16;64.50;100318.77;104729;1261;61694;-54
2023/07/07 05:12:24;;;;;;;9.40;7.70;;;;;;;25.19;64.42;100316.83;105782;1263;64039;-55
2023/07/07 05:14:52;;;;;;;11.40;7.20;;;;;;;25.24;64.23;100310.25;104724;1263;59685;-57
2023/07/07 05:17:18;;;;;;;10.50;7.70;;;;;;;25.28;64.28;100308.37;106186;1263;59638;-55
2023/07/07 05:19:45;;;;;;;9.10;7.60;;;;;;;25.33;63.93;100308.58;106026;1265;64198;-58
2023/07/07 05:22:12;;;;;;;12.30;8.20;;;;;;;25.36;63.58;100314.23;104814;1263;61541;-56
2023/07/07 05:24:39;;;;;;;14.60;8.00;;;;;;;25.36;63.47;100315.01;104766;1263;64011;-53
2023/07/07 05:27:06;;;;;;;8.50;7.40;;;;;;;25.33;63.11;100316.70;104871;1265;59763;-53
2023/07/07 05:29:33;;;;;;;10.90;7.60;;;;;;;25.31;63.41;100322.31;104980;1265;59709;-54
2023/07/07 05:32:00;;;;;;;9.40;7.20;;;;;;;25.33;63.74;100325.86;104983;1267;64521;-55
2023/07/07 05:34:27;;;;;;;9.30;7.50;;;;;;;25.35;63.55;100324.25;105135;1260;61498;-55
2023/07/07 05:36:54;;;;;;;9.50;7.60;;;;;;;25.37;63.21;100327.55;105271;1260;63797;-56
2023/07/07 05:39:20;;;;;;;8.60;7.40;;;;;;;25.39;63.65;100333.17;105107;1260;59753;-55
2023/07/07 05:41:47;;;;;;;12.30;7.10;;;;;;;25.47;63.70;100332.31;105136;1260;59749;-56
2023/07/07 05:44:14;;;;;;;10.70;8.00;;;;;;;25.52;63.26;100329.48;105116;1263;64684;-54
2023/07/07 05:46:41;;;;;;;8.60;7.00;;;;;;;25.57;62.61;100332.89;105137;1260;61746;-52
2023/07/07 05:49:08;;;;;;;11.40;7.70;;;;;;;25.59;62.23;100335.88;105054;1261;64129;-55
2023/07/07 05:51:34;;;;;;;13.10;8.00;;;;;;;25.57;61.89;100336.55;105165;1260;59825;-56
2023/07/07 05:54:01;;;;;;;11.20;9.00;;;;;;;25.52;61.73;100336.73;105012;1260;59746;-55
2023/07/07 05:56:28;;;;;;;9.30;7.60;;;;;;;25.48;61.62;100340.37;105212;1260;64221;-58
2023/07/07 05:58:55;;;;;;;9.50;7.80;;;;;;;25.47;61.87;100349.52;105724;1260;61414;-61
2023/07/07 06:01:23;;;;;;;9.80;7.90;;;;;;;25.49;62.01;100350.98;105532;1260;63833;-61
2023/07/07 06:03:50;;;;;;;12.30;9.00;;;;;;;25.51;61.97;100355.23;105597;1260;59618;-60
2023/07/07 06:06:16;;;;;;;12.30;10.50;;;;;;;25.54;62.08;100354.90;105547;1260;59784;-62
2023/07/07 06:08:43;;;;;;;10.80;9.70;;;;;;;25.56;61.79;100349.25;105649;1262;64367;-60
2023/07/07 06:11:10;;;;;;;11.10;10.00;;;;;;;25.59;61.98;100353.08;105099;1260;59951;-60
2023/07/07 06:13:38;;;;;;;13.80;11.40;;;;;;;25.65;62.08;100351.73;105195;1262;64067;-61
2023/07/07 06:16:08;;;;;;;14.00;12.60;;;;;;;25.71;62.22;100348.30;105210;1260;59937;-61
2023/07/07 06:18:36;;;;;;;14.80;12.50;;;;;;;25.72;62.28;100344.64;105154;1259;59696;-64
2023/07/07 06:21:03;;;;;;;15.30;13.70;;;;;;;25.72;62.48;100342.66;105642;1262;64504;-63
2023/07/07 06:23:31;;;;;;;15.60;13.80;;;;;;;25.76;61.90;100336.27;105520;1264;61464;-63
2023/07/07 06:25:58;;;;;;;15.20;13.50;;;;;;;25.75;61.72;100338.13;105541;1262;64018;-62
2023/07/07 06:28:51;;;;;;;15.80;14.10;;;;;;;25.74;61.47;100338.62;105454;1261;59748;-65
2023/07/07 06:31:18;;;;;;;16.50;14.80;;;;;;;25.65;61.12;100337.51;105619;1259;59650;-63
2023/07/07 06:33:45;;;;;;;16.10;14.40;;;;;;;25.57;61.41;100341.03;105543;1260;64270;-63
2023/07/07 06:36:11;;;;;;;15.00;13.40;;;;;;;25.52;61.61;100341.66;105612;1260;60199;-64
2023/07/07 06:38:38;;;;;;;17.30;13.70;;;;;;;25.50;61.71;100337.96;105632;1262;63739;-64
2023/07/07 06:41:17;;;;;;;15.60;12.40;;;;;;;25.53;61.91;100339.41;105611;1260;59640;-63
2023/07/07 06:43:43;;;;;;;15.20;13.20;;;;;;;25.57;61.86;100339.90;105690;1261;59941;-67
2023/07/07 06:46:10;;;;;;;17.40;13.20;;;;;;;25.57;61.72;100337.84;105560;1263;64394;-63
2023/07/07 06:48:37;;;;;;;14.30;12.80;;;;;;;25.53;61.93;100339.79;105583;1264;60254;-64
2023/07/07 06:51:03;;;;;;;15.30;11.50;;;;;;;25.51;61.82;100336.91;105521;1262;63943;-63
2023/07/07 06:53:30;;;;;;;13.20;10.90;;;;;;;25.50;62.17;100334.67;105166;1260;59736;-72
2023/07/07 06:55:57;;;;;;;13.20;11.50;;;;;;;25.53;62.25;100334.11;105034;1263;59894;-72
2023/07/07 06:58:24;;;;;;;14.30;10.30;;;;;;;25.55;62.02;100336.45;105637;1264;64433;-69
2023/07/07 07:00:52;;;;;;;11.60;10.40;;;;;;;25.57;62.09;100343.94;105255;1260;63573;-70
2023/07/07 07:03:20;;;;;;;12.00;10.70;;;;;;;25.60;62.37;100348.14;105200;1262;64035;-70
2023/07/07 07:05:47;;;;;;;12.90;10.00;;;;;;;25.66;61.77;100350.02;105292;1260;59657;-68
2023/07/07 07:08:14;;;;;;;12.60;10.90;;;;;;;25.68;61.46;100350.91;105147;1260;59618;-69
2023/07/07 07:10:41;;;;;;;11.70;10.40;;;;;;;25.68;61.41;100356.09;105172;1260;64357;-71
2023/07/07 07:13:08;;;;;;;13.10;11.60;;;;;;;25.67;61.56;100362.73;105507;1262;61575;-67
2023/07/07 07:15:35;;;;;;;11.70;9.80;;;;;;;25.75;61.56;100369.54;105183;1260;64460;-71
2023/07/07 07:18:02;;;;;;;14.90;10.00;;;;;;;25.83;60.96;100375.70;105150;1262;59631;-71
2023/07/07 07:20:29;;;;;;;12.70;9.80;;;;;;;25.82;60.86;100382.19;105327;1265;60325;-70
2023/07/07 07:22:55;;;;;;;10.70;9.60;;;;;;;25.84;60.91;100385.64;105282;1261;64403;-71
2023/07/07 07:25:22;;;;;;;11.30;9.60;;;;;;;25.79;61.00;100387.12;105022;1260;61382;-72
2023/07/07 07:27:49;;;;;;;12.00;8.60;;;;;;;25.77;61.03;100391.44;105130;1266;63923;-68
2023/07/07 07:30:31;;;;;;;10.10;9.10;;;;;;;25.82;61.53;100393.55;105027;1260;59832;-68
2023/07/07 07:33:05;;;;;;;10.60;9.10;;;;;;;25.92;61.19;100397.93;105761;1260;59942;-67
2023/07/07 07:35:32;;;;;;;12.00;9.70;;;;;;;26.03;60.61;100406.40;105098;1262;64807;-71
2023/07/07 07:37:59;;;;;;;10.20;8.50;;;;;;;26.11;60.16;100412.73;105098;1263;61526;-69
2023/07/07 07:40:26;;;;;;;9.80;8.50;;;;;;;26.18;59.67;100417.98;105149;1260;63875;-63
2023/07/07 07:42:53;;;;;;;10.40;8.40;;;;;;;26.27;59.60;100422.45;105228;1261;59661;-72
2023/07/07 07:45:22;;;;;;;14.10;7.80;;;;;;;26.37;59.25;100422.48;105064;1261;59669;-67
2023/07/07 07:47:51;;;;;;;12.30;8.70;;;;;;;26.47;59.03;100424.66;105259;1262;64163;-66
2023/07/07 07:50:20;;;;;;;9.70;8.70;;;;;;;26.55;58.50;100430.86;105004;1262;61381;-67
2023/07/07 07:52:47;;;;;;;11.10;8.90;;;;;;;26.57;58.14;100434.48;105218;1264;64024;-70
2023/07/07 07:55:14;;;;;;;11.30;8.40;;;;;;;26.58;58.00;100434.45;105377;1260;59611;-69
2023/07/07 07:57:44;;;;;;;11.00;8.20;;;;;;;26.56;57.58;100433.69;105133;1260;59723;-71
2023/07/07 08:00:12;;;;;;;11.30;8.60;;;;;;;26.54;57.60;100434.95;104986;1264;64455;-70
2023/07/07 08:02:39;;;;;;;11.20;8.10;;;;;;;26.55;57.84;100439.30;105221;1263;61674;-67
2023/07/07 08:05:06;;;;;;;9.10;7.80;;;;;;;26.57;57.94;100439.39;105311;1263;73089;-69
2023/07/07 08:07:34;;;;;;;9.80;7.90;;;;;;;26.56;57.78;100444.76;105116;1263;59631;-68
2023/07/07 08:10:01;;;;;;;9.30;8.20;;;;;;;26.54;57.74;100450.77;105191;1262;59654;-66
2023/07/07 08:12:28;;;;;;;10.60;7.90;;;;;;;26.50;57.60;100449.52;105040;1261;64455;-67
2023/07/07 08:14:55;;;;;;;9.30;7.20;;;;;;;26.48;57.77;100450.33;105007;1263;61551;-67
2023/07/07 08:18:03;;;;;;;9.80;7.70;;;;;;;26.51;58.12;100446.89;104955;1263;64023;-67
2023/07/07 08:20:46;;;;;;;10.10;8.60;;;;;;;26.62;57.89;100442.08;104474;1260;60748;-67
2023/07/07 08:23:13;;;;;;;11.70;8.60;;;;;;;26.67;57.27;100440.61;104609;1264;59768;-71
2023/07/07 08:25:39;;;;;;;9.20;8.00;;;;;;;26.70;57.38;100436.05;105322;1261;63241;-62
2023/07/07 08:28:06;;;;;;;12.30;8.60;;;;;;;26.75;57.36;100436.20;105209;1260;62489;-66
2023/07/07 08:30:34;;;;;;;10.20;7.60;;;;;;;26.82;57.66;100438.48;105328;1262;64000;-59
2023/07/07 08:33:01;;;;;;;9.60;7.90;;;;;;;26.93;57.43;100442.66;105012;1262;59695;-60
2023/07/07 08:35:29;;;;;;;10.10;7.70;;;;;;;26.98;57.22;100446.73;105077;1260;59756;-57
2023/07/07 08:37:56;;;;;;;9.40;7.40;;;;;;;27.04;57.41;100450.95;105025;1263;64202;-59
2023/07/07 08:40:23;;;;;;;9.10;7.70;;;;;;;27.12;57.32;100456.75;105139;1262;61463;-66
2023/07/07 08:42:50;;;;;;;9.70;8.40;;;;;;;27.20;56.75;100462.20;104888;1260;64026;-65
2023/07/07 08:45:19;;;;;;;9.30;7.40;;;;;;;27.28;56.17;100465.21;105107;1262;60372;-66
2023/07/07 08:48:14;;;;;;;11.80;8.90;;;;;;;27.33;56.11;100470.61;105216;1262;61572;-65
2023/07/07 08:50:45;;;;;;;9.20;7.00;;;;;;;27.31;55.92;100476.29;105077;1262;65443;-65
2023/07/07 08:53:17;;;;;;;11.10;7.40;;;;;;;27.32;55.96;100475.45;104947;1264;61503;-67
2023/07/07 08:56:14;;;;;;;8.90;7.30;;;;;;;27.37;55.95;100478.83;105453;1266;62858;-67
2023/07/07 08:59:01;;;;;;;10.30;7.40;;;;;;;27.46;55.39;100474.44;104671;1262;61381;-66
2023/07/07 09:01:48;;;;;;;13.20;7.70;;;;;;;27.52;54.98;100470.23;104992;1261;60553;-67
2023/07/07 09:04:40;;;;;;;9.30;7.50;;;;;;;27.54;54.79;100464.20;105124;1263;65012;-66
2023/07/07 09:07:27;;;;;;;14.40;7.90;;;;;;;27.55;55.08;100456.50;105181;1263;61647;-67
2023/07/07 09:10:20;;;;;;;9.90;8.20;;;;;;;27.54;54.93;100452.48;105627;1263;64222;-64
2023/07/07 09:12:50;;;;;;;9.80;7.40;;;;;;;27.50;54.87;100456.16;105119;1260;60523;-65
2023/07/07 09:15:23;;;;;;;8.30;6.90;;;;;;;27.48;55.26;100451.26;105120;1265;60597;-63
2023/07/07 09:17:56;;;;;;;9.10;7.30;;;;;;;27.47;55.33;100439.45;105080;1263;65014;-68
2023/07/07 09:20:23;;;;;;;9.50;7.40;;;;;;;27.48;55.18;100429.09;104931;1265;60425;-69
2023/07/07 09:22:54;;;;;;;8.70;7.80;;;;;;;27.47;55.03;100426.92;105074;1263;63872;-71
2023/07/07 09:25:41;;;;;;;10.60;7.00;;;;;;;27.45;54.48;100423.98;105185;1262;60486;-67
2023/07/07 09:28:16;;;;;;;8.70;6.70;;;;;;;27.42;54.69;100426.48;105035;1263;60435;-68
2023/07/07 09:31:20;;;;;;;7.60;5.90;;;;;;;27.47;55.07;100423.84;105561;1265;65576;-71
2023/07/07 09:33:48;;;;;;;8.50;6.40;;;;;;;27.58;54.53;100422.09;105113;1262;61659;-66
2023/07/07 09:36:27;;;;;;;8.30;6.20;;;;;;;27.64;54.18;100424.98;105167;1261;64016;-71
2023/07/07 09:38:59;;;;;;;8.60;6.40;;;;;;;27.63;53.70;100428.63;105060;1263;60333;-64
2023/07/07 09:41:45;;;;;;;10.50;6.10;;;;;;;27.55;54.04;100429.22;105358;1263;60591;-67
2023/07/07 09:44:18;;;;;;;8.90;6.10;;;;;;;27.52;54.55;100433.19;105097;1262;66523;-65
2023/07/07 09:47:24;;;;;;;9.30;5.90;;;;;;;27.55;54.17;100433.16;105703;1261;61695;-64
2023/07/07 09:49:59;;;;;;;7.90;6.10;;;;;;;27.62;54.14;100436.17;104670;1267;64021;-65
2023/07/07 09:52:58;;;;;;;8.90;6.30;;;;;;;27.70;54.19;100435.83;104940;1265;60634;-66
2023/07/07 09:55:32;;;;;;;8.30;6.70;;;;;;;27.80;53.64;100434.05;105139;1261;60466;-69
2023/07/07 09:58:36;;;;;;;9.00;7.00;;;;;;;27.85;53.70;100433.35;104973;1265;65033;-61
2023/07/07 10:01:03;;;;;;;8.30;7.00;;;;;;;27.88;53.68;100427.80;104740;1272;61510;-70
2023/07/07 10:03:35;;;;;;;8.90;6.70;;;;;;;27.87;52.86;100420.74;104879;1259;64288;-68
2023/07/07 10:06:12;;;;;;;9.00;7.00;;;;;;;27.80;52.22;100412.42;105460;1263;60465;-72
2023/07/07 10:08:39;;;;;;;9.00;7.50;;;;;;;27.70;52.63;100409.17;108774;1260;58249;-68
2023/07/07 10:11:20;;;;;;;11.50;8.10;;;;;;;27.62;52.99;100408.98;108771;1260;65065;-69
2023/07/07 10:13:50;;;;;;;8.90;7.40;;;;;;;27.54;53.56;100402.83;108854;1260;60102;-66
2023/07/07 10:16:22;;;;;;;11.00;7.90;;;;;;;27.52;53.93;100399.10;108654;1260;62958;-66
2023/07/07 10:18:48;;;;;;;12.00;8.40;;;;;;;27.58;53.91;100391.70;108749;1261;58362;-65
2023/07/07 10:21:35;;;;;;;10.20;7.80;;;;;;;27.65;53.60;100384.64;108813;1260;58222;-66
2023/07/07 10:24:02;;;;;;;8.20;6.90;;;;;;;27.67;53.49;100385.44;108795;1260;65720;-66
2023/07/07 10:26:32;;;;;;;8.50;7.10;;;;;;;27.68;53.69;100388.63;108842;1260;60208;-65
2023/07/07 10:29:00;;;;;;;9.30;7.00;;;;;;;27.70;53.29;100381.05;108825;1261;62422;-67
2023/07/07 10:31:27;;;;;;;10.10;7.20;;;;;;;27.73;53.29;100373.30;108770;1260;58301;-67
2023/07/07 10:34:04;;;;;;;8.80;6.90;;;;;;;27.79;53.61;100376.06;109181;1254;58268;-67
2023/07/07 10:36:32;;;;;;;9.00;7.20;;;;;;;27.86;53.70;100371.30;105654;1257;65210;-65
2023/07/07 10:38:59;;;;;;;9.40;7.60;;;;;;;27.96;53.42;100368.06;105667;1257;60447;-65
2023/07/07 10:41:26;;;;;;;10.70;6.80;;;;;;;28.04;53.35;100367.21;105650;1257;65226;-77
2023/07/07 10:43:53;;;;;;;9.40;6.90;;;;;;;28.10;53.27;100368.58;105698;1258;60561;-73
2023/07/07 10:46:20;;;;;;;11.10;7.30;;;;;;;28.19;53.78;100373.89;105640;1254;60518;-79
2023/07/07 10:48:48;;;;;;;8.20;6.50;;;;;;;28.32;53.60;100373.23;105660;1258;65244;-75
2023/07/07 10:51:42;;;;;;;10.50;6.60;;;;;;;28.46;53.17;100371.98;108703;1257;61762;-59
2023/07/07 10:54:09;;;;;;;12.40;6.40;;;;;;;28.60;51.86;100372.28;105499;1254;64052;-68
2023/07/07 10:56:49;;;;;;;7.10;6.00;;;;;;;28.70;51.96;100372.55;105414;1258;60549;-62
2023/07/07 10:59:32;;;;;;;6.80;5.70;;;;;;;28.79;51.75;100367.36;105470;1259;60390;-67
2023/07/07 11:02:31;;;;;;;6.70;5.40;;;;;;;28.83;50.24;100365.31;105454;1258;65072;-60
2023/07/07 11:05:17;;;;;;;8.00;5.30;;;;;;;28.80;49.60;100366.34;105320;1253;61713;-59
2023/07/07 11:08:20;;;;;;;6.80;4.80;;;;;;;28.73;50.05;100366.77;105506;1254;63788;-62
2023/07/07 11:10:54;;;;;;;6.50;4.90;;;;;;;28.69;49.75;100371.91;105546;1254;62872;-70
2023/07/07 11:13:55;;;;;;;6.40;4.30;;;;;;;28.66;48.53;100371.15;105642;1253;60499;-72
2023/07/07 11:16:40;;;;;;;6.80;5.00;;;;;;;28.64;48.42;100373.36;105689;1254;63732;-74
2023/07/07 11:19:32;;;;;;;6.00;4.50;;;;;;;28.63;48.99;100373.73;104492;1254;61666;-69
2023/07/07 11:22:18;;;;;;;10.20;5.40;;;;;;;28.64;48.79;100373.38;105468;1259;63712;-60
2023/07/07 11:24:54;;;;;;;9.40;5.10;;;;;;;28.67;48.79;100374.99;105544;1254;61160;-61
2023/07/07 11:27:48;;;;;;;6.50;4.50;;;;;;;28.72;48.97;100375.42;105660;1254;60607;-60
2023/07/07 11:30:31;;;;;;;7.30;5.00;;;;;;;28.78;48.56;100383.25;105653;1257;65370;-65
2023/07/07 11:33:13;;;;;;;7.50;5.60;;;;;;;28.82;48.90;100389.87;106093;1256;61732;-66
2023/07/07 11:36:18;;;;;;;7.30;5.30;;;;;;;28.90;49.45;100385.05;106085;1253;63906;-65
2023/07/07 11:38:53;;;;;;;7.40;5.40;;;;;;;29.00;49.51;100384.35;106235;1254;60407;-66
2023/07/07 11:41:46;;;;;;;7.20;4.90;;;;;;;29.06;49.57;100381.58;105666;1254;60485;-67
2023/07/07 11:44:25;;;;;;;6.80;5.40;;;;;;;29.15;49.35;100378.04;105242;1259;65211;-65
2023/07/07 11:46:58;;;;;;;6.50;5.40;;;;;;;29.23;49.40;100378.14;105813;1257;61087;-64
2023/07/07 11:49:43;;;;;;;8.10;5.20;;;;;;;29.38;50.10;100378.04;105590;1264;63841;-65
2023/07/07 11:52:13;;;;;;;7.10;5.30;;;;;;;29.54;50.53;100378.92;105543;1259;60437;-64
2023/07/07 11:54:45;;;;;;;7.00;5.90;;;;;;;29.64;50.31;100385.79;105674;1253;62236;-65
2023/07/07 11:57:26;;;;;;;7.30;5.50;;;;;;;29.71;50.27;100386.05;105556;1257;65216;-65
2023/07/07 12:00:30;;;;;;;8.80;5.60;;;;;;;29.73;50.03;100384.49;105865;1257;62116;-65
2023/07/07 12:03:09;;;;;;;7.60;5.50;;;;;;;29.80;49.74;100384.62;105299;1255;62837;-66
2023/07/07 12:05:36;;;;;;;8.00;6.00;;;;;;;29.92;49.55;100375.83;105434;1254;62246;-65
2023/07/07 12:08:12;;;;;;;7.50;5.90;;;;;;;30.03;49.32;100371.19;105513;1254;60424;-66
2023/07/07 12:10:44;;;;;;;9.20;6.30;;;;;;;30.09;49.32;100368.98;105431;1258;65236;-67
2023/07/07 12:13:44;;;;;;;7.80;6.30;;;;;;;30.13;49.58;100366.88;105350;1255;61539;-65
2023/07/07 12:16:20;;;;;;;8.70;6.00;;;;;;;30.20;49.62;100368.36;105830;1254;63835;-66
2023/07/07 12:18:51;;;;;;;7.70;5.80;;;;;;;30.19;49.04;100363.63;105609;1255;60456;-66
2023/07/07 12:21:23;;;;;;;7.20;5.70;;;;;;;30.10;48.89;100360.86;105497;1257;60432;-69
2023/07/07 12:24:30;;;;;;;6.80;5.60;;;;;;;29.95;48.84;100354.92;105919;1254;65179;-65
2023/07/07 12:27:04;;;;;;;;;;;;;;;29.65;48.76;100351.80;106021;1257;61689;-65
2023/07/07 12:29:30;;;;;;;7.30;5.20;;;;;;;29.44;48.38;100344.30;105496;1256;64093;-68
2023/07/07 12:31:57;;;;;;;8.10;5.50;;;;;;;29.30;49.00;100346.38;105345;1258;60398;-71
2023/07/07 12:34:44;;;;;;;6.60;5.70;;;;;;;29.24;49.40;100347.20;105544;1254;60430;-70
2023/07/07 12:37:20;;;;;;;6.80;5.50;;;;;;;29.21;50.08;100347.21;105646;1254;65036;-69
2023/07/07 12:40:12;;;;;;;7.10;5.30;;;;;;;29.14;49.25;100347.40;105419;1254;62212;-69
2023/07/07 12:42:40;;;;;;;7.00;5.30;;;;;;;29.12;48.89;100350.94;105858;1253;62483;-69
2023/07/07 12:45:19;;;;;;;7.00;5.30;;;;;;;29.15;48.75;100353.79;106231;1254;60431;-65
2023/07/07 12:47:50;;;;;;;6.50;4.70;;;;;;;29.19;48.79;100357.08;105971;1254;60445;-64
2023/07/07 12:50:35;;;;;;;6.40;4.80;;;;;;;29.26;48.26;100355.57;105359;1254;65013;-69
2023/07/07 12:53:09;;;;;;;6.40;4.90;;;;;;;29.37;46.81;100354.71;106094;1254;61609;-69
2023/07/07 12:55:38;;;;;;;6.30;4.20;;;;;;;29.50;46.30;100351.36;105984;1254;63904;-70
2023/07/07 12:58:05;;;;;;;6.90;4.60;;;;;;;29.65;46.56;100356.95;106099;1255;60571;-68
2023/07/07 13:00:42;;;;;;;8.10;4.60;;;;;;;29.84;46.51;100357.55;106084;1257;60433;-66
2023/07/07 13:03:11;;;;;;;7.70;5.40;;;;;;;30.06;46.25;100355.77;105963;1255;65040;-70
2023/07/07 13:05:48;;;;;;;8.50;5.20;;;;;;;30.22;45.30;100362.70;106062;1255;61672;-69
2023/07/07 13:08:38;;;;;;;7.50;6.00;;;;;;;30.39;45.46;100367.68;105864;1254;63957;-71
2023/07/07 13:11:15;;;;;;;7.20;5.90;;;;;;;30.60;45.30;100366.25;105525;1255;60555;-71
2023/07/07 13:13:45;;;;;;;8.00;6.10;;;;;;;30.75;44.74;100364.11;105470;1254;60662;-69
2023/07/07 13:16:22;;;;;;;7.70;5.80;;;;;;;30.84;44.29;100368.80;105864;1257;65253;-64
2023/07/07 13:18:49;;;;;;;6.90;5.40;;;;;;;30.90;44.62;100369.15;105463;1257;61779;-64
2023/07/07 13:21:17;;;;;;;8.20;5.70;;;;;;;31.00;44.90;100367.13;105666;1257;64055;-67
2023/07/07 13:23:45;;;;;;;6.70;5.10;;;;;;;31.16;44.12;100360.63;105498;1254;60493;-64
2023/07/07 13:26:25;;;;;;;7.70;5.60;;;;;;;31.26;43.89;100362.17;105465;1254;60449;-65
2023/07/07 13:28:58;;;;;;;7.50;5.20;;;;;;;31.36;43.41;100362.51;105396;1257;65206;-66
2023/07/07 13:31:25;;;;;;;6.80;5.30;;;;;;;31.40;43.06;100354.64;105418;1257;60539;-68
2023/07/07 13:33:53;;;;;;;6.70;5.10;;;;;;;31.38;43.60;100350.83;106183;1254;63688;-64
2023/07/07 13:36:19;;;;;;;7.30;5.30;;;;;;;31.36;44.23;100348.77;105338;1254;60526;-69
2023/07/07 13:38:47;;;;;;;7.30;5.20;;;;;;;31.40;44.24;100346.06;105769;1254;61114;-69
2023/07/07 13:41:17;;;;;;;6.30;4.70;;;;;;;31.47;44.01;100344.86;105498;1259;65235;-75
2023/07/07 13:43:45;;;;;;;6.60;5.20;;;;;;;31.58;43.70;100338.36;105412;1254;61619;-75
2023/07/07 13:46:23;;;;;;;7.20;5.70;;;;;;;31.65;43.42;100336.70;105452;1254;63933;-72
2023/07/07 13:48:53;;;;;;;6.90;5.40;;;;;;;31.63;44.46;100349.37;105588;1254;60574;-70
2023/07/07 13:51:29;;;;;;;7.50;5.20;;;;;;;31.54;44.76;100348.02;105412;1254;60559;-68
2023/07/07 13:53:57;;;;;;;7.10;6.00;;;;;;;31.49;44.94;100349.59;105768;1257;65209;-70
2023/07/07 13:56:24;;;;;;;8.10;6.60;;;;;;;31.41;44.82;100346.39;105512;1254;61616;-71
2023/07/07 13:58:52;;;;;;;8.90;7.60;;;;;;;31.29;44.43;100339.57;105537;1257;64084;-69
2023/07/07 14:01:31;;;;;;;9.50;7.90;;;;;;;31.10;44.28;100341.02;105451;1254;60498;-72
2023/07/07 14:04:00;;;;;;;10.40;7.30;;;;;;;30.89;45.09;100337.02;105483;1257;60454;-73
2023/07/07 14:06:27;;;;;;;8.80;7.30;;;;;;;30.73;45.17;100330.98;105475;1257;64961;-74
2023/07/07 14:08:55;;;;;;;10.00;7.90;;;;;;;30.55;45.66;100338.46;105596;1258;61492;-75
2023/07/07 14:11:24;;;;;;;12.30;7.50;;;;;;;30.35;47.76;100354.86;105684;1255;63902;-76
2023/07/07 14:13:54;;;;;;;11.00;6.70;;;;;;;30.07;51.36;100361.30;105474;1254;60530;-69
2023/07/07 14:16:26;;;;;;;10.00;6.20;;;;;;;29.72;53.28;100375.11;105500;1259;61369;-69
2023/07/07 14:18:58;;;;;;;9.40;6.70;;;;;;;29.22;55.39;100407.63;105563;1254;65314;-71
2023/07/07 14:21:25;;;;;;;12.10;7.30;;;;;;;28.51;57.61;100420.47;105575;1256;62206;-66
2023/07/07 14:23:52;;;;;;;8.90;5.70;;;;;;;27.78;58.90;100433.08;105643;1259;63876;-73
2023/07/07 14:26:22;;;;;;;10.80;5.90;;;;;;;27.08;59.75;100451.30;105990;1258;60457;-70
2023/07/07 14:28:49;;;;;;;10.00;7.40;;;;;;;26.49;61.11;100455.05;106222;1253;60789;-75
2023/07/07 14:31:16;;;;;;;10.40;7.50;;;;;;;26.09;62.80;100448.33;105962;1257;65317;-72
2023/07/07 14:33:44;;;;;;;10.30;8.00;;;;;;;25.81;64.32;100445.77;105570;1257;61511;-75
2023/07/07 14:36:18;;;;;;;6.90;5.10;;;;;;;25.56;65.09;100446.73;105676;1252;62806;-75
2023/07/07 14:38:48;;;;;;;7.20;4.30;;;;;;;25.33;64.80;100439.08;105717;1251;60678;-71
2023/07/07 14:41:19;;;;;;;7.10;4.00;;;;;;;25.08;64.86;100431.86;105866;1251;60514;-69
2023/07/07 14:43:46;;;;;;;8.20;4.50;;;;;;;24.88;64.84;100437.11;105744;1254;65006;-71
2023/07/07 14:46:20;;;;;;;7.60;4.40;;;;;;;24.71;64.83;100439.29;105766;1251;62861;-71
2023/07/07 14:48:49;;;;;;;7.50;4.10;;;;;;;24.49;64.96;100440.92;106167;1251;63997;-70
2023/07/07 14:51:20;;;;;;;7.20;4.00;;;;;;;24.31;65.64;100444.67;105705;1250;60971;-69
2023/07/07 14:54:00;;;;;;;7.40;4.40;;;;;;;24.18;65.77;100450.92;105868;1254;60439;-71
2023/07/07 14:56:27;;;;;;;8.20;4.60;;;;;;;24.05;66.01;100454.38;105744;1254;65124;-70
2023/07/07 14:58:56;;;;;;;7.00;4.60;;;;;;;23.93;66.59;100451.63;105974;1253;61711;-68
2023/07/07 15:01:25;;;;;;;6.50;4.40;;;;;;;23.87;66.87;100446.67;105816;1253;63880;-67
2023/07/07 15:03:51;;;;;;;6.10;4.00;;;;;;;23.87;67.13;100445.61;105881;1251;60519;-65
2023/07/07 15:06:22;;;;;;;8.30;4.60;;;;;;;23.89;66.75;100443.58;105622;1250;60425;-65
2023/07/07 15:08:50;;;;;;;7.10;4.60;;;;;;;23.92;66.75;100432.56;105694;1253;65034;-64
2023/07/07 15:11:22;;;;;;;7.20;4.30;;;;;;;23.94;66.55;100418.76;106354;1253;61647;-65
2023/07/07 15:13:49;;;;;;;6.80;4.00;;;;;;;23.90;66.78;100413.02;106106;1256;63726;-67
2023/07/07 15:16:20;;;;;;;6.40;3.90;;;;;;;23.85;66.78;100406.80;105691;1251;60502;-66
2023/07/07 15:18:47;;;;;;;8.20;4.10;;;;;;;23.82;66.96;100399.79;106035;1253;60450;-67
2023/07/07 15:21:24;;;;;;;7.90;4.40;;;;;;;23.83;66.99;100389.85;105453;1255;65545;-63
2023/07/07 15:23:51;;;;;;;5.70;3.70;;;;;;;23.86;67.03;100378.43;107363;1251;61734;-61
2023/07/07 15:26:24;;;;;;;6.60;3.80;;;;;;;23.86;66.77;100360.78;105767;1251;63727;-64
2023/07/07 15:28:51;;;;;;;6.30;3.90;;;;;;;23.78;66.48;100346.23;105690;1254;60552;-62
2023/07/07 15:31:18;;;;;;;6.00;2.90;;;;;;;23.63;66.11;100342.49;105559;1251;60428;-64
2023/07/07 15:33:45;;;;;;;6.00;3.10;;;;;;;23.53;66.24;100350.36;105683;1250;63730;-61
2023/07/07 15:36:13;;;;;;;5.40;3.30;;;;;;;23.46;66.15;100370.94;105622;1251;61663;-62
2023/07/07 15:38:43;;;;;;;8.40;3.70;;;;;;;23.43;66.29;100390.36;105705;1254;62663;-63
2023/07/07 15:41:10;;;;;;;6.10;3.40;;;;;;;23.39;66.24;100407.81;105653;1253;60362;-61
2023/07/07 15:43:37;;;;;;;6.20;3.70;;;;;;;23.36;66.60;100434.02;105720;1250;60524;-62
2023/07/07 15:46:14;;;;;;;5.60;3.30;;;;;;;23.39;67.08;100448.03;105604;1254;65031;-60
2023/07/07 15:48:41;;;;;;;6.20;3.60;;;;;;;23.42;67.25;100455.38;105381;1251;61672;-64
2023/07/07 15:51:35;;;;;;;5.80;3.40;;;;;;;23.39;67.46;100461.38;106151;1254;64000;-63
2023/07/07 15:54:03;;;;;;;6.90;3.70;;;;;;;23.36;67.85;100453.69;106235;1251;60572;-61
2023/07/07 15:56:33;;;;;;;11.70;3.70;;;;;;;23.41;68.45;100448.86;105679;1254;59409;-61
2023/07/07 15:59:01;;;;;;;8.60;4.90;;;;;;;23.52;68.76;100444.31;105626;1254;65031;-61
2023/07/07 16:01:28;;;;;;;6.90;4.70;;;;;;;23.67;68.89;100436.01;105558;1254;61475;-60
2023/07/07 16:03:54;;;;;;;8.60;4.90;;;;;;;23.79;68.82;100427.04;105617;1252;63783;-61
2023/07/07 16:06:22;;;;;;;9.60;5.80;;;;;;;23.86;69.25;100416.13;105632;1251;60473;-62
2023/07/07 16:08:48;;;;;;;9.60;6.20;;;;;;;23.84;69.63;100411.71;105616;1251;60547;-62
2023/07/07 16:11:20;;;;;;;10.80;6.30;;;;;;;23.82;70.19;100414.83;105459;1254;65162;-64
2023/07/07 16:13:52;;;;;;;10.30;7.60;;;;;;;23.81;71.07;100418.98;105626;1251;61614;-61